sensor_id;sensor_type;location;lat;lon;timestamp;temperature;humidity
1175;DHT22;576;48.418;10.074;2023-05-10T00:02:18;25.50;64.40
1175;DHT22;576;48.418;10.074;2023-05-10T00:04:46;25.50;64.40
1175;DHT22;576;48.418;10.074;2023-05-10T00:07:14;25.50;64.40
1175;DHT22;576;48.418;10.074;2023-05-10T00:09:44;25.50;64.40
1175;DHT22;576;48.418;10.074;2023-05-10T00:12:13;25.50;64.40
1175;DHT22;576;48.418;10.074;2023-05-10T00:14:41;25.50;64.40
1175;DHT22;576;48.418;10.074;2023-05-10T00:17:10;25.50;64.40
1175;DHT22;576;48.418;10.074;2023-05-10T00:19:38;25.50;64.50
1175;DHT22;576;48.418;10.074;2023-05-10T00:22:06;25.50;64.40
1175;DHT22;576;48.418;10.074;2023-05-10T00:24:34;25.50;64.50
1175;DHT22;576;48.418;10.074;2023-05-10T00:27:02;25.50;64.50
1175;DHT22;576;48.418;10.074;2023-05-10T00:29:32;25.40;64.60
1175;DHT22;576;48.418;10.074;2023-05-10T00:32:00;25.40;64.60
1175;DHT22;576;48.418;10.074;2023-05-10T00:34:28;25.40;64.60
1175;DHT22;576;48.418;10.074;2023-05-10T00:36:57;25.40;64.60
1175;DHT22;576;48.418;10.074;2023-05-10T00:39:26;25.40;64.60
1175;DHT22;576;48.418;10.074;2023-05-10T00:41:55;25.40;64.60
1175;DHT22;576;48.418;10.074;2023-05-10T00:44:23;25.40;64.60
1175;DHT22;576;48.418;10.074;2023-05-10T00:46:53;25.40;64.60
1175;DHT22;576;48.418;10.074;2023-05-10T00:49:21;25.40;64.60
1175;DHT22;576;48.418;10.074;2023-05-10T00:51:50;25.40;64.60
1175;DHT22;576;48.418;10.074;2023-05-10T00:54:19;25.40;64.60
1175;DHT22;576;48.418;10.074;2023-05-10T00:56:48;25.40;64.70
1175;DHT22;576;48.418;10.074;2023-05-10T00:59:16;25.40;64.70
1175;DHT22;576;48.418;10.074;2023-05-10T01:01:46;25.40;64.70
1175;DHT22;576;48.418;10.074;2023-05-10T01:04:16;25.40;64.70
1175;DHT22;576;48.418;10.074;2023-05-10T01:06:44;25.40;64.70
1175;DHT22;576;48.418;10.074;2023-05-10T01:09:12;25.40;64.70
1175;DHT22;576;48.418;10.074;2023-05-10T01:11:40;25.30;64.70
1175;DHT22;576;48.418;10.074;2023-05-10T01:14:09;25.30;64.70
1175;DHT22;576;48.418;10.074;2023-05-10T01:16:39;25.30;64.70
1175;DHT22;576;48.418;10.074;2023-05-10T01:19:14;25.30;64.70
1175;DHT22;576;48.418;10.074;2023-05-10T01:21:49;25.30;64.70
1175;DHT22;576;48.418;10.074;2023-05-10T01:24:50;25.30;64.70
1175;DHT22;576;48.418;10.074;2023-05-10T01:28:07;25.30;64.70
1175;DHT22;576;48.418;10.074;2023-05-10T01:33:40;25.30;64.80
1175;DHT22;576;48.418;10.074;2023-05-10T01:36:16;25.30;64.80
1175;DHT22;576;48.418;10.074;2023-05-10T01:38:57;25.30;64.80
1175;DHT22;576;48.418;10.074;2023-05-10T01:41:35;25.30;64.80
1175;DHT22;576;48.418;10.074;2023-05-10T01:44:11;25.30;64.80
1175;DHT22;576;48.418;10.074;2023-05-10T01:46:49;25.30;64.80
1175;DHT22;576;48.418;10.074;2023-05-10T01:49:25;25.20;64.80
1175;DHT22;576;48.418;10.074;2023-05-10T01:51:56;25.30;64.80
1175;DHT22;576;48.418;10.074;2023-05-10T01:54:27;25.20;64.80
1175;DHT22;576;48.418;10.074;2023-05-10T01:57:01;25.20;64.80
1175;DHT22;576;48.418;10.074;2023-05-10T01:59:34;25.20;64.80
1175;DHT22;576;48.418;10.074;2023-05-10T02:02:06;25.20;64.90
1175;DHT22;576;48.418;10.074;2023-05-10T02:04:41;25.20;64.90
1175;DHT22;576;48.418;10.074;2023-05-10T02:07:10;25.20;64.90
1175;DHT22;576;48.418;10.074;2023-05-10T02:09:40;25.20;64.90
1175;DHT22;576;48.418;10.074;2023-05-10T02:12:12;25.20;64.90
1175;DHT22;576;48.418;10.074;2023-05-10T02:14:41;25.20;64.90
1175;DHT22;576;48.418;10.074;2023-05-10T02:17:10;25.20;64.90
1175;DHT22;576;48.418;10.074;2023-05-10T02:19:41;25.20;64.90
1175;DHT22;576;48.418;10.074;2023-05-10T02:22:11;25.20;64.90
1175;DHT22;576;48.418;10.074;2023-05-10T02:24:40;25.20;64.90
1175;DHT22;576;48.418;10.074;2023-05-10T02:27:10;25.20;64.90
1175;DHT22;576;48.418;10.074;2023-05-10T02:29:39;25.20;64.90
1175;DHT22;576;48.418;10.074;2023-05-10T02:32:09;25.20;64.90
1175;DHT22;576;48.418;10.074;2023-05-10T02:34:40;25.20;64.90
1175;DHT22;576;48.418;10.074;2023-05-10T02:37:09;25.20;64.90
1175;DHT22;576;48.418;10.074;2023-05-10T02:39:38;25.20;64.90
1175;DHT22;576;48.418;10.074;2023-05-10T02:42:15;25.10;64.90
1175;DHT22;576;48.418;10.074;2023-05-10T02:44:45;25.10;64.90
1175;DHT22;576;48.418;10.074;2023-05-10T02:47:15;25.10;64.90
1175;DHT22;576;48.418;10.074;2023-05-10T02:49:44;25.10;64.90
1175;DHT22;576;48.418;10.074;2023-05-10T02:52:18;25.20;64.90
1175;DHT22;576;48.418;10.074;2023-05-10T02:54:54;25.10;64.90
1175;DHT22;576;48.418;10.074;2023-05-10T02:57:27;25.10;64.90
1175;DHT22;576;48.418;10.074;2023-05-10T02:59:55;25.10;64.90
1175;DHT22;576;48.418;10.074;2023-05-10T03:02:23;25.10;64.90
1175;DHT22;576;48.418;10.074;2023-05-10T03:04:53;25.10;64.90
1175;DHT22;576;48.418;10.074;2023-05-10T03:07:22;25.10;64.90
1175;DHT22;576;48.418;10.074;2023-05-10T03:09:50;25.10;64.90
1175;DHT22;576;48.418;10.074;2023-05-10T03:12:27;25.10;64.90
1175;DHT22;576;48.418;10.074;2023-05-10T03:15:07;25.10;64.90
1175;DHT22;576;48.418;10.074;2023-05-10T03:17:44;25.10;64.90
1175;DHT22;576;48.418;10.074;2023-05-10T03:20:22;25.10;64.90
1175;DHT22;576;48.418;10.074;2023-05-10T03:22:55;25.10;64.90
1175;DHT22;576;48.418;10.074;2023-05-10T03:25:29;25.10;64.90
1175;DHT22;576;48.418;10.074;2023-05-10T03:28:01;25.10;64.90
1175;DHT22;576;48.418;10.074;2023-05-10T03:30:30;25.10;64.90
1175;DHT22;576;48.418;10.074;2023-05-10T03:33:04;25.10;64.90
1175;DHT22;576;48.418;10.074;2023-05-10T03:35:36;25.10;64.90
1175;DHT22;576;48.418;10.074;2023-05-10T03:38:05;25.10;64.90
1175;DHT22;576;48.418;10.074;2023-05-10T03:40:33;25.10;64.90
1175;DHT22;576;48.418;10.074;2023-05-10T03:43:01;25.10;64.90
1175;DHT22;576;48.418;10.074;2023-05-10T03:45:30;25.10;64.90
1175;DHT22;576;48.418;10.074;2023-05-10T03:47:59;25.10;64.90
1175;DHT22;576;48.418;10.074;2023-05-10T03:50:27;25.10;64.90
1175;DHT22;576;48.418;10.074;2023-05-10T03:52:57;25.00;64.90
1175;DHT22;576;48.418;10.074;2023-05-10T03:55:27;25.00;64.90
1175;DHT22;576;48.418;10.074;2023-05-10T03:57:56;25.00;64.90
1175;DHT22;576;48.418;10.074;2023-05-10T04:00:26;25.00;64.90
1175;DHT22;576;48.418;10.074;2023-05-10T04:02:55;25.00;64.90
1175;DHT22;576;48.418;10.074;2023-05-10T04:05:23;25.00;64.90
1175;DHT22;576;48.418;10.074;2023-05-10T04:07:52;25.00;64.90
1175;DHT22;576;48.418;10.074;2023-05-10T04:10:22;25.00;64.90
1175;DHT22;576;48.418;10.074;2023-05-10T04:12:50;25.00;64.90
1175;DHT22;576;48.418;10.074;2023-05-10T04:15:18;25.00;64.90
1175;DHT22;576;48.418;10.074;2023-05-10T04:17:46;25.00;64.90
1175;DHT22;576;48.418;10.074;2023-05-10T04:20:15;25.00;64.90
1175;DHT22;576;48.418;10.074;2023-05-10T04:22:43;25.00;64.90
1175;DHT22;576;48.418;10.074;2023-05-10T04:25:12;25.00;64.90
1175;DHT22;576;48.418;10.074;2023-05-10T04:27:41;25.00;64.90
1175;DHT22;576;48.418;10.074;2023-05-10T04:30:10;25.00;64.90
1175;DHT22;576;48.418;10.074;2023-05-10T04:32:38;25.00;64.90
1175;DHT22;576;48.418;10.074;2023-05-10T04:35:07;25.00;64.90
1175;DHT22;576;48.418;10.074;2023-05-10T04:37:36;25.00;64.90
1175;DHT22;576;48.418;10.074;2023-05-10T04:40:06;25.00;64.90
1175;DHT22;576;48.418;10.074;2023-05-10T04:42:34;25.00;64.90
1175;DHT22;576;48.418;10.074;2023-05-10T04:45:05;25.00;64.90
1175;DHT22;576;48.418;10.074;2023-05-10T04:47:34;25.00;64.90
1175;DHT22;576;48.418;10.074;2023-05-10T04:50:05;25.00;64.90
1175;DHT22;576;48.418;10.074;2023-05-10T04:52:34;25.00;65.00
1175;DHT22;576;48.418;10.074;2023-05-10T04:55:04;25.00;65.00
1175;DHT22;576;48.418;10.074;2023-05-10T04:57:34;25.00;65.00
1175;DHT22;576;48.418;10.074;2023-05-10T05:00:06;25.00;65.10
1175;DHT22;576;48.418;10.074;2023-05-10T05:02:35;25.00;65.10
1175;DHT22;576;48.418;10.074;2023-05-10T05:05:05;25.00;65.10
1175;DHT22;576;48.418;10.074;2023-05-10T05:07:34;25.00;65.20
1175;DHT22;576;48.418;10.074;2023-05-10T05:10:03;25.00;65.10
1175;DHT22;576;48.418;10.074;2023-05-10T05:12:32;25.00;65.10
1175;DHT22;576;48.418;10.074;2023-05-10T05:15:04;25.00;65.10
1175;DHT22;576;48.418;10.074;2023-05-10T05:17:35;25.00;65.20
1175;DHT22;576;48.418;10.074;2023-05-10T05:20:04;25.00;65.20
1175;DHT22;576;48.418;10.074;2023-05-10T05:22:33;25.00;65.20
1175;DHT22;576;48.418;10.074;2023-05-10T05:25:01;25.00;65.10
1175;DHT22;576;48.418;10.074;2023-05-10T05:27:30;25.00;65.10
1175;DHT22;576;48.418;10.074;2023-05-10T05:29:58;25.00;65.20
1175;DHT22;576;48.418;10.074;2023-05-10T05:32:28;25.00;65.10
1175;DHT22;576;48.418;10.074;2023-05-10T05:34:56;25.00;65.10
1175;DHT22;576;48.418;10.074;2023-05-10T05:37:24;25.00;65.10
1175;DHT22;576;48.418;10.074;2023-05-10T05:39:53;25.00;65.10
1175;DHT22;576;48.418;10.074;2023-05-10T05:42:21;25.00;65.10
1175;DHT22;576;48.418;10.074;2023-05-10T05:44:50;25.00;65.10
1175;DHT22;576;48.418;10.074;2023-05-10T05:47:18;25.00;65.10
1175;DHT22;576;48.418;10.074;2023-05-10T05:49:47;25.00;65.10
1175;DHT22;576;48.418;10.074;2023-05-10T05:52:16;25.00;65.20
1175;DHT22;576;48.418;10.074;2023-05-10T05:54:44;25.00;65.40
1175;DHT22;576;48.418;10.074;2023-05-10T05:57:12;25.00;65.50
1175;DHT22;576;48.418;10.074;2023-05-10T05:59:40;25.00;65.60
1175;DHT22;576;48.418;10.074;2023-05-10T06:02:10;25.00;65.60
1175;DHT22;576;48.418;10.074;2023-05-10T06:04:39;25.00;65.60
1175;DHT22;576;48.418;10.074;2023-05-10T06:07:11;25.10;65.50
1175;DHT22;576;48.418;10.074;2023-05-10T06:09:40;25.00;65.60
1175;DHT22;576;48.418;10.074;2023-05-10T06:12:08;25.10;65.60
1175;DHT22;576;48.418;10.074;2023-05-10T06:14:36;25.10;65.40
1175;DHT22;576;48.418;10.074;2023-05-10T06:17:04;25.10;65.50
1175;DHT22;576;48.418;10.074;2023-05-10T06:19:33;25.10;65.50
1175;DHT22;576;48.418;10.074;2023-05-10T06:22:02;25.20;65.40
1175;DHT22;576;48.418;10.074;2023-05-10T06:24:31;25.10;65.40
1175;DHT22;576;48.418;10.074;2023-05-10T06:27:00;25.20;65.30
1175;DHT22;576;48.418;10.074;2023-05-10T06:29:28;25.20;65.30
1175;DHT22;576;48.418;10.074;2023-05-10T06:31:56;25.20;65.20
1175;DHT22;576;48.418;10.074;2023-05-10T06:34:25;25.20;65.20
1175;DHT22;576;48.418;10.074;2023-05-10T06:36:53;25.20;65.10
1175;DHT22;576;48.418;10.074;2023-05-10T06:39:22;25.20;65.20
1175;DHT22;576;48.418;10.074;2023-05-10T06:41:51;25.30;65.10
1175;DHT22;576;48.418;10.074;2023-05-10T06:44:19;25.30;65.10
1175;DHT22;576;48.418;10.074;2023-05-10T06:46:48;25.30;65.10
1175;DHT22;576;48.418;10.074;2023-05-10T06:49:17;25.30;65.10
1175;DHT22;576;48.418;10.074;2023-05-10T06:51:45;25.30;65.00
1175;DHT22;576;48.418;10.074;2023-05-10T06:54:13;25.30;64.90
1175;DHT22;576;48.418;10.074;2023-05-10T06:56:41;25.30;64.90
1175;DHT22;576;48.418;10.074;2023-05-10T06:59:11;25.30;64.90
1175;DHT22;576;48.418;10.074;2023-05-10T07:01:40;25.30;64.90
1175;DHT22;576;48.418;10.074;2023-05-10T07:04:08;25.40;64.80
1175;DHT22;576;48.418;10.074;2023-05-10T07:06:36;25.40;64.80
1175;DHT22;576;48.418;10.074;2023-05-10T07:09:04;25.40;64.80
1175;DHT22;576;48.418;10.074;2023-05-10T07:11:34;25.40;64.80
1175;DHT22;576;48.418;10.074;2023-05-10T07:14:04;25.40;64.80
1175;DHT22;576;48.418;10.074;2023-05-10T07:16:33;25.40;64.80
1175;DHT22;576;48.418;10.074;2023-05-10T07:19:02;25.40;64.60
1175;DHT22;576;48.418;10.074;2023-05-10T07:21:32;25.40;64.80
1175;DHT22;576;48.418;10.074;2023-05-10T07:24:00;25.40;64.80
1175;DHT22;576;48.418;10.074;2023-05-10T07:26:29;25.40;64.80
1175;DHT22;576;48.418;10.074;2023-05-10T07:28:58;25.40;64.70
1175;DHT22;576;48.418;10.074;2023-05-10T07:31:26;25.40;64.60
1175;DHT22;576;48.418;10.074;2023-05-10T07:33:56;25.40;64.70
1175;DHT22;576;48.418;10.074;2023-05-10T07:36:24;25.40;64.60
1175;DHT22;576;48.418;10.074;2023-05-10T07:38:52;25.50;64.40
1175;DHT22;576;48.418;10.074;2023-05-10T07:41:20;25.50;64.30
1175;DHT22;576;48.418;10.074;2023-05-10T07:43:49;25.50;64.40
1175;DHT22;576;48.418;10.074;2023-05-10T07:46:17;25.50;64.40
1175;DHT22;576;48.418;10.074;2023-05-10T07:48:46;25.50;64.40
1175;DHT22;576;48.418;10.074;2023-05-10T07:51:15;25.50;64.30
1175;DHT22;576;48.418;10.074;2023-05-10T07:53:43;25.50;64.30
1175;DHT22;576;48.418;10.074;2023-05-10T07:56:23;25.50;64.30
1175;DHT22;576;48.418;10.074;2023-05-10T07:58:52;25.50;64.30
1175;DHT22;576;48.418;10.074;2023-05-10T08:01:20;25.50;64.30
1175;DHT22;576;48.418;10.074;2023-05-10T08:03:48;25.50;64.30
1175;DHT22;576;48.418;10.074;2023-05-10T08:06:19;25.50;64.30
1175;DHT22;576;48.418;10.074;2023-05-10T08:08:48;25.50;64.20
1175;DHT22;576;48.418;10.074;2023-05-10T08:11:17;25.50;64.30
1175;DHT22;576;48.418;10.074;2023-05-10T08:13:45;25.50;64.20
1175;DHT22;576;48.418;10.074;2023-05-10T08:16:14;25.50;64.20
1175;DHT22;576;48.418;10.074;2023-05-10T08:18:43;25.50;64.10
1175;DHT22;576;48.418;10.074;2023-05-10T08:21:11;25.50;64.10
1175;DHT22;576;48.418;10.074;2023-05-10T08:23:41;25.60;64.10
1175;DHT22;576;48.418;10.074;2023-05-10T08:26:11;25.60;64.10
1175;DHT22;576;48.418;10.074;2023-05-10T08:28:39;25.60;64.00
1175;DHT22;576;48.418;10.074;2023-05-10T08:31:07;25.60;64.10
1175;DHT22;576;48.418;10.074;2023-05-10T08:33:36;25.60;64.00
1175;DHT22;576;48.418;10.074;2023-05-10T08:36:04;25.60;64.00
1175;DHT22;576;48.418;10.074;2023-05-10T08:38:32;25.60;63.90
1175;DHT22;576;48.418;10.074;2023-05-10T08:41:02;25.60;63.90
1175;DHT22;576;48.418;10.074;2023-05-10T08:43:31;25.60;63.90
1175;DHT22;576;48.418;10.074;2023-05-10T08:46:00;25.70;63.90
1175;DHT22;576;48.418;10.074;2023-05-10T08:48:29;25.70;63.80
1175;DHT22;576;48.418;10.074;2023-05-10T08:50:59;25.70;63.80
1175;DHT22;576;48.418;10.074;2023-05-10T08:53:29;25.70;63.80
1175;DHT22;576;48.418;10.074;2023-05-10T08:55:59;25.70;63.70
1175;DHT22;576;48.418;10.074;2023-05-10T08:58:28;25.70;63.70
1175;DHT22;576;48.418;10.074;2023-05-10T09:00:57;25.70;63.60
1175;DHT22;576;48.418;10.074;2023-05-10T09:03:25;25.70;63.60
1175;DHT22;576;48.418;10.074;2023-05-10T09:05:54;25.80;63.60
1175;DHT22;576;48.418;10.074;2023-05-10T09:08:23;25.80;63.60
1175;DHT22;576;48.418;10.074;2023-05-10T09:10:54;25.80;63.60
1175;DHT22;576;48.418;10.074;2023-05-10T09:13:23;25.80;63.50
1175;DHT22;576;48.418;10.074;2023-05-10T09:15:53;25.80;63.50
1175;DHT22;576;48.418;10.074;2023-05-10T09:18:21;25.90;63.50
1175;DHT22;576;48.418;10.074;2023-05-10T09:20:51;25.90;63.40
1175;DHT22;576;48.418;10.074;2023-05-10T09:23:19;25.90;63.40
1175;DHT22;576;48.418;10.074;2023-05-10T09:25:48;25.90;63.40
1175;DHT22;576;48.418;10.074;2023-05-10T09:28:31;25.90;63.40
1175;DHT22;576;48.418;10.074;2023-05-10T09:31:01;25.90;63.40
1175;DHT22;576;48.418;10.074;2023-05-10T09:33:43;25.90;63.40
1175;DHT22;576;48.418;10.074;2023-05-10T09:36:12;25.90;63.40
1175;DHT22;576;48.418;10.074;2023-05-10T09:38:47;25.90;63.40
1175;DHT22;576;48.418;10.074;2023-05-10T09:41:17;25.90;63.30
1175;DHT22;576;48.418;10.074;2023-05-10T09:43:45;25.90;63.30
1175;DHT22;576;48.418;10.074;2023-05-10T09:46:15;25.90;63.30
1175;DHT22;576;48.418;10.074;2023-05-10T09:48:44;25.90;63.40
1175;DHT22;576;48.418;10.074;2023-05-10T09:51:19;25.90;63.30
1175;DHT22;576;48.418;10.074;2023-05-10T09:53:49;25.90;63.30
1175;DHT22;576;48.418;10.074;2023-05-10T09:56:36;25.90;63.20
1175;DHT22;576;48.418;10.074;2023-05-10T09:59:08;25.90;63.20
1175;DHT22;576;48.418;10.074;2023-05-10T10:01:38;25.90;63.20
1175;DHT22;576;48.418;10.074;2023-05-10T10:04:09;25.90;63.20
1175;DHT22;576;48.418;10.074;2023-05-10T10:06:38;25.90;63.30
1175;DHT22;576;48.418;10.074;2023-05-10T10:09:07;25.90;63.20
1175;DHT22;576;48.418;10.074;2023-05-10T10:11:35;25.90;63.20
1175;DHT22;576;48.418;10.074;2023-05-10T10:14:04;25.90;63.20
1175;DHT22;576;48.418;10.074;2023-05-10T10:16:32;25.90;63.10
1175;DHT22;576;48.418;10.074;2023-05-10T10:19:02;25.90;63.10
1175;DHT22;576;48.418;10.074;2023-05-10T10:21:31;25.90;63.10
1175;DHT22;576;48.418;10.074;2023-05-10T10:24:00;25.90;63.10
1175;DHT22;576;48.418;10.074;2023-05-10T10:26:33;25.90;63.10
1175;DHT22;576;48.418;10.074;2023-05-10T10:29:14;25.90;63.10
1175;DHT22;576;48.418;10.074;2023-05-10T10:31:47;25.90;63.20
1175;DHT22;576;48.418;10.074;2023-05-10T10:34:26;25.90;63.20
1175;DHT22;576;48.418;10.074;2023-05-10T10:36:55;25.90;63.10
1175;DHT22;576;48.418;10.074;2023-05-10T10:39:24;25.90;63.20
1175;DHT22;576;48.418;10.074;2023-05-10T10:41:54;25.90;63.10
1175;DHT22;576;48.418;10.074;2023-05-10T10:44:33;25.90;63.10
1175;DHT22;576;48.418;10.074;2023-05-10T10:47:03;25.90;63.10
1175;DHT22;576;48.418;10.074;2023-05-10T10:49:43;25.90;63.00
1175;DHT22;576;48.418;10.074;2023-05-10T10:52:33;25.90;63.00
1175;DHT22;576;48.418;10.074;2023-05-10T10:55:03;25.90;63.10
1175;DHT22;576;48.418;10.074;2023-05-10T10:57:33;25.90;63.10
1175;DHT22;576;48.418;10.074;2023-05-10T11:00:25;25.90;63.40
1175;DHT22;576;48.418;10.074;2023-05-10T11:02:56;25.90;63.40
1175;DHT22;576;48.418;10.074;2023-05-10T11:05:37;25.90;63.30
1175;DHT22;576;48.418;10.074;2023-05-10T11:08:12;25.90;63.30
1175;DHT22;576;48.418;10.074;2023-05-10T11:10:48;26.00;63.30
1175;DHT22;576;48.418;10.074;2023-05-10T11:13:27;26.00;63.40
1175;DHT22;576;48.418;10.074;2023-05-10T11:15:57;25.90;63.70
1175;DHT22;576;48.418;10.074;2023-05-10T11:18:27;26.00;63.50
1175;DHT22;576;48.418;10.074;2023-05-10T11:20:59;26.00;63.40
1175;DHT22;576;48.418;10.074;2023-05-10T11:23:30;26.00;63.30
1175;DHT22;576;48.418;10.074;2023-05-10T11:25:59;26.00;63.30
1175;DHT22;576;48.418;10.074;2023-05-10T11:28:28;25.90;63.40
1175;DHT22;576;48.418;10.074;2023-05-10T11:30:57;25.90;63.50
1175;DHT22;576;48.418;10.074;2023-05-10T11:33:26;25.90;63.40
1175;DHT22;576;48.418;10.074;2023-05-10T11:35:57;25.90;63.60
1175;DHT22;576;48.418;10.074;2023-05-10T11:38:25;25.90;63.40
1175;DHT22;576;48.418;10.074;2023-05-10T11:40:53;25.90;63.50
1175;DHT22;576;48.418;10.074;2023-05-10T11:43:24;25.90;63.60
1175;DHT22;576;48.418;10.074;2023-05-10T11:45:55;25.90;63.60
1175;DHT22;576;48.418;10.074;2023-05-10T11:48:23;25.90;63.50
1175;DHT22;576;48.418;10.074;2023-05-10T11:50:51;25.90;63.40
1175;DHT22;576;48.418;10.074;2023-05-10T11:53:26;25.90;63.30
1175;DHT22;576;48.418;10.074;2023-05-10T11:55:55;25.90;63.30
1175;DHT22;576;48.418;10.074;2023-05-10T11:58:25;25.90;63.20
1175;DHT22;576;48.418;10.074;2023-05-10T12:00:53;26.00;63.20
1175;DHT22;576;48.418;10.074;2023-05-10T12:03:21;26.00;63.10
1175;DHT22;576;48.418;10.074;2023-05-10T12:05:50;26.00;63.10
1175;DHT22;576;48.418;10.074;2023-05-10T12:08:20;26.00;63.10
1175;DHT22;576;48.418;10.074;2023-05-10T12:10:50;26.00;63.10
1175;DHT22;576;48.418;10.074;2023-05-10T12:13:20;26.00;63.10
1175;DHT22;576;48.418;10.074;2023-05-10T12:15:48;26.00;63.10
1175;DHT22;576;48.418;10.074;2023-05-10T12:18:22;26.00;63.20
1175;DHT22;576;48.418;10.074;2023-05-10T12:20:52;26.00;63.20
1175;DHT22;576;48.418;10.074;2023-05-10T12:23:21;26.00;63.30
1175;DHT22;576;48.418;10.074;2023-05-10T12:25:50;26.00;63.30
1175;DHT22;576;48.418;10.074;2023-05-10T12:28:20;26.00;63.30
1175;DHT22;576;48.418;10.074;2023-05-10T12:30:48;26.10;63.30
1175;DHT22;576;48.418;10.074;2023-05-10T12:33:20;26.10;63.30
1175;DHT22;576;48.418;10.074;2023-05-10T12:35:50;26.10;63.40
1175;DHT22;576;48.418;10.074;2023-05-10T12:38:26;26.00;63.40
1175;DHT22;576;48.418;10.074;2023-05-10T12:40:58;26.00;63.50
1175;DHT22;576;48.418;10.074;2023-05-10T12:43:27;26.00;63.50
1175;DHT22;576;48.418;10.074;2023-05-10T12:45:55;26.00;63.60
1175;DHT22;576;48.418;10.074;2023-05-10T12:48:24;26.00;63.50
1175;DHT22;576;48.418;10.074;2023-05-10T12:50:52;26.00;63.50
1175;DHT22;576;48.418;10.074;2023-05-10T12:53:21;26.10;63.50
1175;DHT22;576;48.418;10.074;2023-05-10T12:55:49;26.10;63.50
1175;DHT22;576;48.418;10.074;2023-05-10T12:58:18;26.10;63.50
1175;DHT22;576;48.418;10.074;2023-05-10T13:00:53;26.10;63.50
1175;DHT22;576;48.418;10.074;2023-05-10T13:03:23;26.10;63.50
1175;DHT22;576;48.418;10.074;2023-05-10T13:05:51;26.10;63.50
1175;DHT22;576;48.418;10.074;2023-05-10T13:08:19;26.10;63.50
1175;DHT22;576;48.418;10.074;2023-05-10T13:10:47;26.10;63.40
1175;DHT22;576;48.418;10.074;2023-05-10T13:13:17;26.10;63.50
1175;DHT22;576;48.418;10.074;2023-05-10T13:15:46;26.10;63.40
1175;DHT22;576;48.418;10.074;2023-05-10T13:18:14;26.10;63.50
1175;DHT22;576;48.418;10.074;2023-05-10T13:20:42;26.10;63.50
1175;DHT22;576;48.418;10.074;2023-05-10T13:23:11;26.10;63.50
1175;DHT22;576;48.418;10.074;2023-05-10T13:25:39;26.10;63.60
1175;DHT22;576;48.418;10.074;2023-05-10T13:28:07;26.10;63.60
1175;DHT22;576;48.418;10.074;2023-05-10T13:30:36;26.10;63.60
1175;DHT22;576;48.418;10.074;2023-05-10T13:33:05;26.10;63.70
1175;DHT22;576;48.418;10.074;2023-05-10T13:35:33;26.10;63.60
1175;DHT22;576;48.418;10.074;2023-05-10T13:38:01;26.10;63.70
1175;DHT22;576;48.418;10.074;2023-05-10T13:40:29;26.10;63.70
1175;DHT22;576;48.418;10.074;2023-05-10T13:42:57;26.10;63.80
1175;DHT22;576;48.418;10.074;2023-05-10T13:45:26;26.10;63.80
1175;DHT22;576;48.418;10.074;2023-05-10T13:47:55;26.10;63.90
1175;DHT22;576;48.418;10.074;2023-05-10T13:50:24;26.10;63.90
1175;DHT22;576;48.418;10.074;2023-05-10T13:52:52;26.10;63.90
1175;DHT22;576;48.418;10.074;2023-05-10T13:55:20;26.10;64.00
1175;DHT22;576;48.418;10.074;2023-05-10T13:57:49;26.10;64.10
1175;DHT22;576;48.418;10.074;2023-05-10T14:00:17;26.00;64.10
1175;DHT22;576;48.418;10.074;2023-05-10T14:02:45;26.10;64.20
1175;DHT22;576;48.418;10.074;2023-05-10T14:05:15;26.10;64.20
1175;DHT22;576;48.418;10.074;2023-05-10T14:07:48;26.10;64.20
1175;DHT22;576;48.418;10.074;2023-05-10T14:10:16;26.10;64.20
1175;DHT22;576;48.418;10.074;2023-05-10T14:12:45;26.10;64.20
1175;DHT22;576;48.418;10.074;2023-05-10T14:15:13;26.10;64.20
1175;DHT22;576;48.418;10.074;2023-05-10T14:17:41;26.10;64.30
1175;DHT22;576;48.418;10.074;2023-05-10T14:20:11;26.10;64.30
1175;DHT22;576;48.418;10.074;2023-05-10T14:22:40;26.10;64.30
1175;DHT22;576;48.418;10.074;2023-05-10T14:25:09;26.10;64.30
1175;DHT22;576;48.418;10.074;2023-05-10T14:27:37;26.10;64.30
1175;DHT22;576;48.418;10.074;2023-05-10T14:30:06;26.10;64.40
1175;DHT22;576;48.418;10.074;2023-05-10T14:32:35;26.10;64.40
1175;DHT22;576;48.418;10.074;2023-05-10T14:35:04;26.10;64.40
1175;DHT22;576;48.418;10.074;2023-05-10T14:37:33;26.10;64.40
1175;DHT22;576;48.418;10.074;2023-05-10T14:40:02;26.10;64.40
1175;DHT22;576;48.418;10.074;2023-05-10T14:42:31;26.10;64.40
1175;DHT22;576;48.418;10.074;2023-05-10T14:44:59;26.20;64.20
1175;DHT22;576;48.418;10.074;2023-05-10T14:47:27;26.10;64.40
1175;DHT22;576;48.418;10.074;2023-05-10T14:49:56;26.10;64.40
1175;DHT22;576;48.418;10.074;2023-05-10T14:52:25;26.20;64.30
1175;DHT22;576;48.418;10.074;2023-05-10T14:54:53;26.10;64.20
1175;DHT22;576;48.418;10.074;2023-05-10T14:57:23;26.10;63.70
1175;DHT22;576;48.418;10.074;2023-05-10T14:59:51;26.10;63.20
1175;DHT22;576;48.418;10.074;2023-05-10T15:02:20;26.10;63.00
1175;DHT22;576;48.418;10.074;2023-05-10T15:04:49;26.10;62.80
1175;DHT22;576;48.418;10.074;2023-05-10T15:07:18;26.00;62.80
1175;DHT22;576;48.418;10.074;2023-05-10T15:09:47;26.00;62.70
1175;DHT22;576;48.418;10.074;2023-05-10T15:12:16;26.00;62.70
1175;DHT22;576;48.418;10.074;2023-05-10T15:14:46;26.00;62.70
1175;DHT22;576;48.418;10.074;2023-05-10T15:17:15;26.00;62.70
1175;DHT22;576;48.418;10.074;2023-05-10T15:19:44;26.00;62.70
1175;DHT22;576;48.418;10.074;2023-05-10T15:22:13;26.00;62.60
1175;DHT22;576;48.418;10.074;2023-05-10T15:24:41;26.00;62.60
1175;DHT22;576;48.418;10.074;2023-05-10T15:27:10;26.00;62.50
1175;DHT22;576;48.418;10.074;2023-05-10T15:29:39;25.90;62.50
1175;DHT22;576;48.418;10.074;2023-05-10T15:32:09;26.00;62.50
1175;DHT22;576;48.418;10.074;2023-05-10T15:34:38;25.90;62.60
1175;DHT22;576;48.418;10.074;2023-05-10T15:37:06;26.00;62.60
1175;DHT22;576;48.418;10.074;2023-05-10T15:39:34;25.90;62.70
1175;DHT22;576;48.418;10.074;2023-05-10T15:42:03;25.90;62.70
1175;DHT22;576;48.418;10.074;2023-05-10T15:44:31;25.90;62.70
1175;DHT22;576;48.418;10.074;2023-05-10T15:47:01;25.90;62.70
1175;DHT22;576;48.418;10.074;2023-05-10T15:49:31;25.90;62.80
1175;DHT22;576;48.418;10.074;2023-05-10T15:52:00;25.90;62.90
1175;DHT22;576;48.418;10.074;2023-05-10T15:54:28;25.90;62.90
1175;DHT22;576;48.418;10.074;2023-05-10T15:56:57;25.90;62.90
1175;DHT22;576;48.418;10.074;2023-05-10T15:59:25;25.90;62.90
1175;DHT22;576;48.418;10.074;2023-05-10T16:01:54;25.90;62.90
1175;DHT22;576;48.418;10.074;2023-05-10T16:04:22;25.90;62.90
1175;DHT22;576;48.418;10.074;2023-05-10T16:06:52;25.90;63.00
1175;DHT22;576;48.418;10.074;2023-05-10T16:09:20;25.90;63.00
1175;DHT22;576;48.418;10.074;2023-05-10T16:11:49;25.90;62.90
1175;DHT22;576;48.418;10.074;2023-05-10T16:14:17;25.90;62.80
1175;DHT22;576;48.418;10.074;2023-05-10T16:16:47;25.90;62.70
1175;DHT22;576;48.418;10.074;2023-05-10T16:19:15;25.90;62.70
1175;DHT22;576;48.418;10.074;2023-05-10T16:21:43;25.80;62.70
1175;DHT22;576;48.418;10.074;2023-05-10T16:24:13;25.80;62.70